LEZLLPBJ

Guest
Details From LEZL - Sevilla
To LPBJ - BEJA
Flight Number -
Tags generated
Created
Modified
Stats Distance 106 nm / 196 km
Max Altitude 8,700 ft / 2,652 m
Waypoints 3
Social Downloads 2
Likes 0
Share VATSIM

Download

Looking for another format? Having issues loading an existing format? Contact us
Advertisement - Login to hide

Notes

Basic altitude profile: - Ascent Rate: 2500ft/min - Ascent Speed: 250kts - Cruise Altitude: 8000ft - Cruise Speed: 320kts - Descent Rate: 1800ft/min - Descent Speed: 200kts Options: - Use NATs: yes - Use PACOTS: yes - Use low airways: yes - Use high airways: yes

Route

LEZL SANTA LPBJ

ID Type Via Altitude Latitude Longitude Leg Dist Tot Dist Heading (true) Name
O LEZL APT - 0 ft / 0 m 37.41794˚ -5.89309˚ - 0 nm - Sevilla
SANTA FIX - 8,700 ft / 2,652 m 37.66854˚ -6.29835˚ 24 nm 24 nm 308° / 308° -
O LPBJ APT - 0 ft / 0 m 38.07878˚ -7.93118˚ 81 nm 105 nm 288° / 287° BEJA

Altitude Profile

Advertisement - Login to hide

LEZL

Details ICAO LEZL (SVQ)
Name Sevilla
Region Spain
Timezone Europe/Madrid (UTC+2.0)
Stats Elevation 111 ft / 34 m (AMSL)
Location 37.417939° -5.893093°
Runways 1
Magnetic Variation 1.245° W

METAR

LEZL 251500Z 24012KT 200V280 9999 SCT045 24/11 Q1012 NOSIG

Decode

TAF

TAF LEZL 251400Z 2515/2615 22008KT 9999 FEW030 TX23/2515Z TN14/2606Z PROB30 TEMPO 2602/2606 BKN014

Decode

Departure Runways

ID Width Length Bearing (true) Bearing (mag) Surface Threshold Offset Overrun Length
09 148 ft / 45 m 11,008 ft / 3,355 m 89.75° 90.99° Asphalt 0 ft / 0 m 0 ft / 0 m
27 148 ft / 45 m 11,008 ft / 3,355 m 269.77° 271.01° Asphalt 0 ft / 0 m 0 ft / 0 m

LPBJ

Details ICAO LPBJ
Name BEJA
Region Portugal
Timezone Europe/Lisbon (UTC+1.0)
Stats Elevation 636 ft / 194 m (AMSL)
Location 38.078784° -7.931182°
Runways 2
Magnetic Variation 1.893° W

METAR

LPBJ 251500Z /////KT 9999 FEW026 FEW030CB SCT035 20/11 Q1012

Decode

TAF

TAF LPBJ 251102Z 2512/2612 26008KT 9999 SCT018 PROB40 TEMPO 2512/2518 3000 TSRAGS BKN012 SCT022CB BECMG 2519/2521 VRB02KT PROB40 2600/2608 0100 FG BKN001 BECMG 2608/2610 18005KT

Decode

Destination Runways

ID Width Length Bearing (true) Bearing (mag) Surface Threshold Offset Overrun Length
01L 197 ft / 60 m 11,341 ft / 3,457 m 5.90° 7.79° Concrete 0 ft / 0 m 902 ft / 275 m
01R 98 ft / 30 m 9,699 ft / 2,956 m 5.91° 7.80° Concrete 0 ft / 0 m 804 ft / 245 m
19L 98 ft / 30 m 9,699 ft / 2,956 m 185.91° 187.80° Concrete 0 ft / 0 m 833 ft / 254 m
19R 197 ft / 60 m 11,341 ft / 3,457 m 185.90° 187.79° Concrete 0 ft / 0 m 902 ft / 275 m

Approach Navaids

Runway Type Ident Frequency Range Bearing (true) Bearing (mag) Slope Elevation
19R Localiser BJ 110.30 MHz 18 nm / 33 km 185.90° 187.80° - 628 ft / 191 m (AMSL)
19R Glidescope BJ 110.30 MHz 10 nm / 19 km 185.90° 187.80° 3.00° 625 ft / 191 m (AMSL)

Popular Alternatives